createdAt,value
2019-05-23T00:00:37.500Z,0
2019-05-23T00:01:37.358Z,0
2019-05-23T00:02:37.441Z,0
2019-05-23T00:03:37.288Z,0
2019-05-23T00:04:37.399Z,0
2019-05-23T00:05:37.359Z,0
2019-05-23T00:06:37.325Z,0
2019-05-23T00:07:37.488Z,0
2019-05-23T00:08:37.374Z,0
2019-05-23T00:09:37.324Z,0
2019-05-23T00:10:37.475Z,0
2019-05-23T00:11:39.995Z,0
2019-05-23T00:12:37.390Z,0
2019-05-23T00:13:37.397Z,0
2019-05-23T00:14:37.385Z,0
2019-05-23T00:15:37.368Z,0
2019-05-23T00:16:37.352Z,0
2019-05-23T00:17:37.356Z,0
2019-05-23T00:18:37.386Z,0
2019-05-23T00:19:37.337Z,0
2019-05-23T00:20:37.486Z,0
2019-05-23T00:21:37.407Z,0
2019-05-23T00:22:37.373Z,0
2019-05-23T00:23:37.690Z,0
2019-05-23T00:24:37.366Z,0
2019-05-23T00:25:37.418Z,0
2019-05-23T00:26:37.425Z,0
2019-05-23T00:27:37.244Z,0
2019-05-23T00:28:37.500Z,0
2019-05-23T00:29:40.256Z,0
2019-05-23T00:30:37.423Z,0
2019-05-23T00:31:37.370Z,0
2019-05-23T00:32:37.436Z,0
2019-05-23T00:33:37.445Z,0
2019-05-23T00:34:37.371Z,0
2019-05-23T00:35:37.893Z,0
2019-05-23T00:36:37.381Z,0
2019-05-23T00:37:37.458Z,0
2019-05-23T00:38:37.360Z,0
2019-05-23T00:39:37.407Z,0
2019-05-23T00:40:37.766Z,0
2019-05-23T00:41:37.804Z,0
2019-05-23T00:42:37.413Z,0
2019-05-23T00:43:37.454Z,0
2019-05-23T00:44:37.416Z,0
2019-05-23T00:45:37.488Z,0
2019-05-23T00:46:37.367Z,0
2019-05-23T00:47:37.394Z,0
2019-05-23T00:52:55.256Z,0
2019-05-23T00:59:34.545Z,0
2019-05-23T00:59:45.592Z,0
2019-05-23T01:00:45.546Z,0
2019-05-23T01:01:45.888Z,0
2019-05-23T01:02:45.605Z,0
2019-05-23T01:03:45.591Z,0
2019-05-23T01:04:45.592Z,0
2019-05-23T01:05:45.587Z,0
2019-05-23T01:06:45.649Z,0
2019-05-23T01:07:45.575Z,0
2019-05-23T01:08:45.947Z,0
2019-05-23T01:09:45.579Z,0
2019-05-23T01:10:46.082Z,0
2019-05-23T01:11:45.563Z,0
2019-05-23T01:12:45.589Z,0
2019-05-23T01:13:45.654Z,0
2019-05-23T01:14:45.583Z,0
2019-05-23T01:15:45.618Z,0
2019-05-23T01:16:45.694Z,0
2019-05-23T01:17:45.622Z,0
2019-05-23T01:18:45.705Z,0
2019-05-23T01:19:45.627Z,0
2019-05-23T01:20:45.606Z,0
2019-05-23T01:21:45.602Z,0
2019-05-23T01:22:45.532Z,0
2019-05-23T01:23:45.640Z,0
2019-05-23T01:24:45.725Z,0
2019-05-23T01:25:45.674Z,0
2019-05-23T01:26:45.920Z,0
2019-05-23T01:27:46.583Z,0
2019-05-23T01:28:45.696Z,0
2019-05-23T01:29:52.164Z,0
2019-05-23T01:30:45.921Z,0
2019-05-23T01:31:45.684Z,0
2019-05-23T01:32:46.025Z,0
2019-05-23T01:33:45.641Z,0
2019-05-23T01:34:45.847Z,0
2019-05-23T01:35:45.822Z,0
2019-05-23T01:36:45.615Z,0
2019-05-23T01:37:45.675Z,0
2019-05-23T01:38:45.668Z,0
2019-05-23T01:39:45.666Z,0
2019-05-23T01:40:45.663Z,0
2019-05-23T01:41:45.629Z,0
2019-05-23T01:42:45.592Z,0
2019-05-23T01:43:45.640Z,0
2019-05-23T01:44:45.585Z,0
2019-05-23T01:45:45.702Z,0
2019-05-23T01:46:45.663Z,0
2019-05-23T01:47:45.750Z,0
2019-05-23T01:48:46.453Z,0
2019-05-23T01:49:45.900Z,0
2019-05-23T01:50:45.935Z,0
2019-05-23T01:51:45.678Z,0
2019-05-23T01:52:45.669Z,0
2019-05-23T01:53:45.683Z,0
2019-05-23T01:54:45.653Z,0
2019-05-23T01:55:45.660Z,0
2019-05-23T01:58:52.913Z,0
2019-05-23T02:03:20.789Z,0
2019-05-23T02:04:31.852Z,0
2019-05-23T02:05:31.767Z,0
2019-05-23T02:06:31.752Z,0
2019-05-23T02:07:31.844Z,0
2019-05-23T02:08:31.861Z,0
2019-05-23T02:09:33.161Z,0
2019-05-23T02:10:31.840Z,0
2019-05-23T02:11:32.269Z,0
2019-05-23T02:12:31.764Z,0
2019-05-23T02:13:32.224Z,0
2019-05-23T02:14:31.820Z,0
2019-05-23T02:15:31.895Z,0
2019-05-23T02:16:31.754Z,0
2019-05-23T02:17:31.848Z,0
2019-05-23T02:18:39.999Z,0
2019-05-23T02:19:31.832Z,0
2019-05-23T02:20:31.816Z,0
2019-05-23T02:21:32.179Z,0
2019-05-23T02:23:36.545Z,0
2019-05-23T02:23:47.601Z,0
2019-05-23T02:24:47.598Z,0
2019-05-23T02:25:47.758Z,0
2019-05-23T02:26:47.861Z,0
2019-05-23T02:27:47.594Z,0
2019-05-23T02:28:47.574Z,0
2019-05-23T02:29:47.953Z,0
2019-05-23T02:30:47.569Z,0
2019-05-23T02:31:47.732Z,0
2019-05-23T02:32:47.560Z,0
2019-05-23T02:33:47.575Z,0
2019-05-23T02:34:47.707Z,0
2019-05-23T02:35:47.582Z,0
2019-05-23T02:36:47.565Z,0
2019-05-23T02:37:47.575Z,0
2019-05-23T02:38:48.007Z,0
2019-05-23T02:44:03.995Z,0
2019-05-23T02:45:14.968Z,0
2019-05-23T02:46:14.987Z,0
2019-05-23T02:47:15.012Z,0
2019-05-23T02:48:15.026Z,0
2019-05-23T02:49:15.039Z,0
2019-05-23T02:50:15.037Z,0
2019-05-23T02:51:15.290Z,0
2019-05-23T02:52:15.074Z,0
2019-05-23T02:53:14.995Z,0
2019-05-23T02:54:15.002Z,0
2019-05-23T02:55:15.032Z,0
2019-05-23T02:56:15.002Z,0
2019-05-23T02:57:14.973Z,0
2019-05-23T02:58:15.029Z,0
2019-05-23T02:59:15.022Z,0
2019-05-23T03:00:15.534Z,0
2019-05-23T03:01:15.393Z,0
2019-05-23T03:02:15.000Z,0
2019-05-23T03:03:15.010Z,4
2019-05-23T03:04:15.245Z,0
2019-05-23T03:05:15.045Z,0
2019-05-23T03:06:15.086Z,0
2019-05-23T03:07:15.032Z,0
2019-05-23T03:08:15.067Z,4
2019-05-23T03:09:15.024Z,4
2019-05-23T03:10:15.151Z,0
2019-05-23T03:14:44.119Z,4
2019-05-23T03:15:44.152Z,4
2019-05-23T03:16:44.353Z,4
2019-05-23T03:17:44.141Z,4
2019-05-23T03:18:54.072Z,4
2019-05-23T03:24:01.256Z,8
2019-05-23T03:25:12.389Z,8
2019-05-23T03:26:12.448Z,8
2019-05-23T03:27:12.341Z,8
2019-05-23T03:28:12.297Z,8
2019-05-23T03:29:12.313Z,12
2019-05-23T03:30:12.560Z,12
2019-05-23T03:31:37.964Z,12
2019-05-23T03:32:12.286Z,16
2019-05-23T03:33:12.341Z,16
2019-05-23T03:34:12.310Z,16
2019-05-23T03:35:12.742Z,16
2019-05-23T03:36:12.416Z,20
2019-05-23T03:37:12.328Z,20
2019-05-23T03:38:12.365Z,20
2019-05-23T03:39:12.271Z,20
2019-05-23T03:40:12.342Z,24
2019-05-23T03:41:12.412Z,20
2019-05-23T03:42:12.312Z,24
2019-05-23T03:43:12.283Z,28
2019-05-23T03:44:12.370Z,28
2019-05-23T03:45:12.313Z,28
2019-05-23T03:46:12.298Z,32
2019-05-23T03:47:12.262Z,32
2019-05-23T03:48:12.333Z,32
2019-05-23T03:49:12.319Z,36
2019-05-23T03:50:13.287Z,40
2019-05-23T03:51:12.426Z,40
2019-05-23T03:52:12.365Z,44
2019-05-23T03:53:12.635Z,48
2019-05-23T03:54:12.577Z,44
2019-05-23T03:55:12.339Z,48
2019-05-23T03:56:12.305Z,52
2019-05-23T03:57:12.316Z,52
2019-05-23T03:58:12.337Z,52
2019-05-23T03:59:12.474Z,56
2019-05-23T04:00:12.523Z,60
2019-05-23T04:01:12.317Z,64
2019-05-23T04:02:12.332Z,64
2019-05-23T04:03:15.959Z,64
2019-05-23T04:04:12.432Z,68
2019-05-23T04:05:12.310Z,68
2019-05-23T04:06:12.375Z,72
2019-05-23T04:07:12.400Z,68
2019-05-23T04:08:12.346Z,68
2019-05-23T04:09:12.374Z,68
2019-05-23T04:10:12.399Z,72
2019-05-23T04:11:12.747Z,72
2019-05-23T04:12:12.369Z,72
2019-05-23T04:13:12.378Z,72
2019-05-23T04:14:12.299Z,76
2019-05-23T04:15:12.347Z,76
2019-05-23T04:16:12.375Z,80
2019-05-23T04:17:12.707Z,80
2019-05-23T04:18:12.307Z,80
2019-05-23T04:19:12.424Z,80
2019-05-23T04:20:12.455Z,84
2019-05-23T04:21:12.382Z,84
2019-05-23T04:22:12.380Z,88
2019-05-23T04:23:12.432Z,92
2019-05-23T04:24:12.356Z,92
2019-05-23T04:25:13.079Z,92
2019-05-23T04:26:13.511Z,92
2019-05-23T04:27:12.379Z,96
2019-05-23T04:28:12.404Z,100
2019-05-23T04:29:12.790Z,108
2019-05-23T04:30:12.546Z,108
2019-05-23T04:31:15.724Z,108
2019-05-23T04:32:16.458Z,112
2019-05-23T04:33:12.492Z,116
2019-05-23T04:34:12.449Z,112
2019-05-23T04:35:12.747Z,104
2019-05-23T04:36:12.380Z,100
2019-05-23T04:37:12.472Z,104
2019-05-23T04:38:12.423Z,108
2019-05-23T04:43:29.784Z,124
2019-05-23T04:44:43.931Z,124
2019-05-23T04:45:40.861Z,128
2019-05-23T04:46:40.759Z,136
2019-05-23T04:47:40.831Z,140
2019-05-23T04:49:40.752Z,144
2019-05-23T04:50:41.306Z,140
2019-05-23T04:51:40.889Z,148
2019-05-23T04:52:40.893Z,148
2019-05-23T04:53:41.041Z,152
2019-05-23T04:54:41.047Z,156
2019-05-23T04:55:40.876Z,160
2019-05-23T04:56:40.944Z,160
2019-05-23T04:57:40.808Z,160
2019-05-23T04:58:40.814Z,152
2019-05-23T04:59:40.769Z,144
2019-05-23T05:00:40.845Z,136
2019-05-23T05:01:40.993Z,132
2019-05-23T05:02:40.776Z,136
2019-05-23T05:03:40.823Z,132
2019-05-23T05:04:41.179Z,124
2019-05-23T05:05:40.996Z,124
2019-05-23T05:06:40.818Z,124
2019-05-23T05:07:40.810Z,128
2019-05-23T05:08:40.775Z,132
2019-05-23T05:09:40.825Z,136
2019-05-23T05:10:40.866Z,144
2019-05-23T05:11:40.811Z,156
2019-05-23T05:12:41.198Z,164
2019-05-23T05:13:41.030Z,188
2019-05-23T05:14:40.849Z,216
2019-05-23T05:15:40.856Z,188
2019-05-23T05:16:40.871Z,200
2019-05-23T05:17:40.911Z,300
2019-05-23T05:18:55.652Z,332
2019-05-23T05:19:40.830Z,372
2019-05-23T05:20:42.012Z,384
2019-05-23T05:21:40.868Z,384
2019-05-23T05:22:40.870Z,388
2019-05-23T05:23:40.844Z,384
2019-05-23T05:24:46.827Z,388
2019-05-23T05:25:40.848Z,384
2019-05-23T05:26:40.851Z,384
2019-05-23T05:27:40.835Z,380
2019-05-23T05:28:40.882Z,376
2019-05-23T05:29:40.905Z,356
2019-05-23T05:30:41.307Z,332
2019-05-23T05:31:40.959Z,328
2019-05-23T05:32:52.700Z,320
2019-05-23T05:33:40.841Z,320
2019-05-23T05:34:40.868Z,328
2019-05-23T05:35:40.876Z,332
2019-05-23T05:36:41.246Z,340
2019-05-23T05:37:40.849Z,348
2019-05-23T05:38:40.903Z,344
2019-05-23T05:39:40.864Z,344
2019-05-23T05:40:40.914Z,340
2019-05-23T05:41:40.936Z,332
2019-05-23T05:42:40.826Z,328
2019-05-23T05:43:40.847Z,348
2019-05-23T05:44:41.144Z,380
2019-05-23T05:45:41.363Z,416
2019-05-23T05:46:40.852Z,444
2019-05-23T05:47:40.818Z,452
2019-05-23T05:48:40.849Z,436
2019-05-23T05:49:44.909Z,428
2019-05-23T05:50:40.900Z,424
2019-05-23T05:51:40.954Z,488
2019-05-23T05:52:40.914Z,480
2019-05-23T05:53:40.850Z,468
2019-05-23T05:54:40.849Z,448
2019-05-23T05:55:41.047Z,472
2019-05-23T05:56:40.864Z,500
2019-05-23T05:57:40.873Z,532
2019-05-23T05:58:40.939Z,596
2019-05-23T05:59:41.439Z,628
2019-05-23T06:00:42.063Z,604
2019-05-23T06:01:42.107Z,628
2019-05-23T06:02:40.884Z,768
2019-05-23T06:03:40.910Z,844
2019-05-23T06:04:40.893Z,788
2019-05-23T06:05:40.923Z,740
2019-05-23T06:06:40.873Z,736
2019-05-23T06:07:40.911Z,768
2019-05-23T06:08:40.987Z,740
2019-05-23T06:09:41.007Z,720
2019-05-23T06:10:40.981Z,640
2019-05-23T06:11:40.923Z,752
2019-05-23T06:12:41.280Z,720
2019-05-23T06:13:41.128Z,756
2019-05-23T06:14:40.916Z,788
2019-05-23T06:15:40.908Z,804
2019-05-23T06:16:40.947Z,820
2019-05-23T06:17:40.895Z,848
2019-05-23T06:18:41.207Z,928
2019-05-23T06:19:40.995Z,1008
2019-05-23T06:20:43.537Z,1068
2019-05-23T06:21:40.962Z,1156
2019-05-23T06:22:40.982Z,1212
2019-05-23T06:23:41.005Z,1244
2019-05-23T06:25:00.720Z,1384
2019-05-23T06:25:40.935Z,1432
2019-05-23T06:26:40.947Z,1356
2019-05-23T06:27:40.989Z,1436
2019-05-23T06:28:40.939Z,1512
2019-05-23T06:29:40.952Z,1700
2019-05-23T06:30:40.991Z,1828
2019-05-23T06:31:41.019Z,2256
2019-05-23T06:32:41.132Z,2476
2019-05-23T06:33:40.976Z,2312
2019-05-23T06:34:40.954Z,1696
2019-05-23T06:35:40.986Z,2036
2019-05-23T06:36:41.494Z,2160
2019-05-23T06:37:42.221Z,2184
2019-05-23T06:38:40.942Z,2252
2019-05-23T06:43:58.466Z,2464
2019-05-23T06:45:09.463Z,2360
2019-05-23T06:46:09.475Z,2460
2019-05-23T06:47:09.466Z,2448
2019-05-23T06:48:09.613Z,2352
2019-05-23T06:49:12.779Z,2284
2019-05-23T06:50:09.657Z,2284
2019-05-23T06:51:09.916Z,2280
2019-05-23T06:52:09.544Z,2212
2019-05-23T06:53:10.520Z,2008
2019-05-23T06:54:09.679Z,2168
2019-05-23T06:55:09.933Z,2128
2019-05-23T06:56:09.487Z,1992
2019-05-23T06:57:09.702Z,2152
2019-05-23T06:58:09.461Z,2132
2019-05-23T06:59:09.779Z,2148
2019-05-23T07:00:09.558Z,2048
2019-05-23T07:01:10.094Z,1944
2019-05-23T07:02:09.471Z,2140
2019-05-23T07:03:10.030Z,2088
2019-05-23T07:04:09.547Z,2096
2019-05-23T07:05:09.469Z,2044
2019-05-23T07:06:09.553Z,2048
2019-05-23T07:07:10.224Z,2056
2019-05-23T07:08:10.107Z,2040
2019-05-23T07:09:09.472Z,2024
2019-05-23T07:10:11.754Z,2076
2019-05-23T07:11:09.671Z,2108
2019-05-23T07:12:09.512Z,2160
2019-05-23T07:13:09.841Z,2204
2019-05-23T07:14:09.503Z,2256
2019-05-23T07:15:11.011Z,2308
2019-05-23T07:16:09.579Z,2308
2019-05-23T07:17:09.488Z,2292
2019-05-23T07:18:09.511Z,2300
2019-05-23T07:19:11.942Z,2272
2019-05-23T07:20:09.505Z,2084
2019-05-23T07:21:09.617Z,2296
2019-05-23T07:22:09.522Z,2296
2019-05-23T07:23:09.528Z,2296
2019-05-23T07:24:09.595Z,2308
2019-05-23T07:25:09.564Z,2356
2019-05-23T07:26:09.553Z,2360
2019-05-23T07:27:09.612Z,2256
2019-05-23T07:28:09.848Z,2236
2019-05-23T07:29:09.606Z,2336
2019-05-23T07:30:10.416Z,2300
2019-05-23T07:31:09.961Z,2260
2019-05-23T07:32:09.592Z,2212
2019-05-23T07:33:10.120Z,2188
2019-05-23T07:34:10.610Z,2152
2019-05-23T07:35:09.668Z,2168
2019-05-23T07:36:09.570Z,2176
2019-05-23T07:37:09.558Z,2164
2019-05-23T07:38:09.749Z,2148
2019-05-23T07:39:11.576Z,2124
2019-05-23T07:40:09.582Z,2108
2019-05-23T07:45:26.508Z,2112
2019-05-23T07:45:39.714Z,2068
2019-05-23T07:46:37.614Z,2124
2019-05-23T07:47:39.995Z,2148
2019-05-23T07:48:37.572Z,2116
2019-05-23T07:49:37.816Z,2052
2019-05-23T07:50:37.559Z,2136
2019-05-23T07:51:37.740Z,2212
2019-05-23T07:52:37.559Z,2248
2019-05-23T07:53:37.700Z,2220
2019-05-23T07:54:37.492Z,2276
2019-05-23T07:55:37.527Z,2252
2019-05-23T07:56:37.495Z,2348
2019-05-23T07:57:37.555Z,2416
2019-05-23T07:58:37.571Z,2412
2019-05-23T07:59:37.548Z,2468
2019-05-23T08:00:37.616Z,2468
2019-05-23T08:01:37.542Z,2552
2019-05-23T08:02:37.674Z,2536
2019-05-23T08:03:37.562Z,2556
2019-05-23T08:04:37.499Z,2428
2019-05-23T08:05:37.530Z,2348
2019-05-23T08:06:37.532Z,2172
2019-05-23T08:07:41.103Z,2320
2019-05-23T08:08:37.552Z,2220
2019-05-23T08:09:37.539Z,2292
2019-05-23T08:10:41.822Z,2344
2019-05-23T08:11:37.626Z,2332
2019-05-23T08:12:37.724Z,2368
2019-05-23T08:13:37.819Z,2256
2019-05-23T08:14:37.577Z,2316
2019-05-23T08:15:37.578Z,2348
2019-05-23T08:19:09.513Z,2152
2019-05-23T08:19:27.712Z,2180
2019-05-23T08:20:27.209Z,2132
2019-05-23T08:21:27.278Z,2120
2019-05-23T08:22:27.467Z,2104
2019-05-23T08:23:27.220Z,2052
2019-05-23T08:24:27.231Z,1976
2019-05-23T08:25:28.631Z,1960
2019-05-23T08:26:27.191Z,1932
2019-05-23T08:27:27.217Z,1920
2019-05-23T08:28:27.227Z,1944
2019-05-23T08:29:34.129Z,1940
2019-05-23T08:30:27.516Z,1940
2019-05-23T08:31:27.426Z,1852
2019-05-23T08:32:27.244Z,1636
2019-05-23T08:33:27.215Z,1504
2019-05-23T08:34:45.704Z,1584
2019-05-23T08:35:27.310Z,1700
2019-05-23T08:36:27.341Z,1688
2019-05-23T08:37:27.205Z,1568
2019-05-23T08:38:27.303Z,1492
2019-05-23T08:39:27.351Z,1556
2019-05-23T08:40:27.357Z,1536
2019-05-23T08:41:27.387Z,1512
2019-05-23T08:42:27.271Z,1504
2019-05-23T08:43:27.544Z,1484
2019-05-23T08:44:27.227Z,1476
2019-05-23T08:45:27.253Z,1520
2019-05-23T08:46:27.262Z,1492
2019-05-23T08:47:27.409Z,1472
2019-05-23T08:48:27.225Z,1516
2019-05-23T08:49:27.258Z,1552
2019-05-23T08:50:27.235Z,1596
2019-05-23T08:51:27.246Z,1680
2019-05-23T08:52:27.280Z,1652
2019-05-23T08:53:27.259Z,1800
2019-05-23T08:54:27.695Z,1804
2019-05-23T08:55:27.373Z,1920
2019-05-23T08:56:27.697Z,1984
2019-05-23T08:57:27.368Z,1944
2019-05-23T08:58:27.273Z,1928
2019-05-23T08:59:27.244Z,1956
2019-05-23T09:00:27.352Z,1940
2019-05-23T09:01:27.218Z,1904
2019-05-23T09:02:27.262Z,1812
2019-05-23T09:04:32.021Z,1864
2019-05-23T09:05:06.554Z,1828
2019-05-23T09:05:43.005Z,1868
2019-05-23T09:06:43.034Z,1848
2019-05-23T09:07:43.074Z,1832
2019-05-23T09:08:43.156Z,1864
2019-05-23T09:09:43.074Z,1876
2019-05-23T09:10:43.083Z,1788
2019-05-23T09:11:43.130Z,1816
2019-05-23T09:12:43.099Z,1820
2019-05-23T09:13:43.106Z,1776
2019-05-23T09:14:44.649Z,1824
2019-05-23T09:15:43.153Z,1812
2019-05-23T09:16:43.119Z,1848
2019-05-23T09:18:00.312Z,888
2019-05-23T09:18:43.403Z,1072
2019-05-23T09:19:43.183Z,1756
2019-05-23T09:20:43.070Z,1728
2019-05-23T09:21:43.146Z,1792
2019-05-23T09:22:43.123Z,1804
2019-05-23T09:23:46.890Z,1796
2019-05-23T09:24:43.095Z,1724
2019-05-23T09:25:43.118Z,1752
2019-05-23T09:26:43.153Z,1772
2019-05-23T09:27:43.074Z,1756
2019-05-23T09:28:43.146Z,1756
2019-05-23T09:29:43.106Z,1796
2019-05-23T09:30:43.297Z,1400
2019-05-23T09:31:43.122Z,1812
2019-05-23T09:32:43.147Z,1704
2019-05-23T09:33:43.139Z,1856
2019-05-23T09:34:43.160Z,1856
2019-05-23T09:35:43.069Z,1840
2019-05-23T09:36:43.134Z,1788
2019-05-23T09:37:43.141Z,1752
2019-05-23T09:38:43.229Z,1712
2019-05-23T09:39:43.091Z,1656
2019-05-23T09:40:43.106Z,1724
2019-05-23T09:41:43.113Z,1732
2019-05-23T09:42:43.152Z,1792
2019-05-23T09:43:43.117Z,736
2019-05-23T09:44:43.319Z,684
2019-05-23T09:45:43.138Z,692
2019-05-23T09:46:43.134Z,1752
2019-05-23T09:47:43.521Z,1756
2019-05-23T09:48:43.143Z,1756
2019-05-23T09:49:53.418Z,1736
2019-05-23T09:55:00.880Z,1800
2019-05-23T09:55:12.052Z,1380
2019-05-23T09:56:12.190Z,704
2019-05-23T09:57:11.999Z,676
2019-05-23T09:58:11.838Z,652
2019-05-23T09:59:11.847Z,644
2019-05-23T10:00:15.567Z,636
2019-05-23T10:01:11.928Z,644
2019-05-23T10:02:12.151Z,700
2019-05-23T10:03:11.851Z,1800
2019-05-23T10:04:11.964Z,1812
2019-05-23T10:05:11.887Z,1864
2019-05-23T10:06:12.362Z,1896
2019-05-23T10:07:11.945Z,1812
2019-05-23T10:08:11.867Z,1872
2019-05-23T10:09:11.856Z,1948
2019-05-23T10:10:11.962Z,1956
2019-05-23T10:11:11.906Z,1900
2019-05-23T10:14:19.194Z,1964
2019-05-23T10:15:31.799Z,1932
2019-05-23T10:16:30.230Z,1944
2019-05-23T10:17:30.540Z,1948
2019-05-23T10:18:30.281Z,1964
2019-05-23T10:19:30.204Z,1980
2019-05-23T10:20:30.236Z,1996
2019-05-23T10:21:30.158Z,1984
2019-05-23T10:22:30.186Z,1988
2019-05-23T10:23:30.151Z,1992
2019-05-23T10:24:30.205Z,1828
2019-05-23T10:25:30.647Z,716
2019-05-23T10:30:48.098Z,736
2019-05-23T10:31:59.157Z,756
2019-05-23T10:32:59.214Z,1796
2019-05-23T10:33:59.168Z,1824
2019-05-23T10:34:59.137Z,1852
2019-05-23T10:36:08.725Z,1840
2019-05-23T10:36:59.450Z,1796
2019-05-23T10:37:59.349Z,1664
2019-05-23T10:38:59.149Z,1768
2019-05-23T10:39:59.155Z,1656
2019-05-23T10:40:59.179Z,1520
2019-05-23T10:41:59.125Z,1656
2019-05-23T10:42:59.069Z,1552
2019-05-23T10:43:59.153Z,1732
2019-05-23T10:44:59.161Z,1768
2019-05-23T10:45:59.230Z,1832
2019-05-23T10:46:59.097Z,1836
2019-05-23T10:47:59.153Z,1788
2019-05-23T10:48:59.152Z,1812
2019-05-23T10:49:59.286Z,1840
2019-05-23T10:50:59.237Z,1848
2019-05-23T10:51:59.177Z,1780
2019-05-23T10:52:59.878Z,1756
2019-05-23T10:53:59.215Z,1596
2019-05-23T10:55:00.182Z,1512
2019-05-23T10:55:59.241Z,1548
2019-05-23T10:56:59.212Z,1248
2019-05-23T10:57:59.169Z,1384
2019-05-23T10:58:59.159Z,1580
2019-05-23T10:59:59.207Z,1716
2019-05-23T11:00:59.582Z,1720
2019-05-23T11:01:59.190Z,1844
2019-05-23T11:02:59.273Z,1876
2019-05-23T11:03:59.117Z,1880
2019-05-23T11:05:11.053Z,1884
2019-05-23T11:06:13.247Z,1868
2019-05-23T11:06:59.144Z,1852
2019-05-23T11:07:59.220Z,1832
2019-05-23T11:08:59.288Z,1772
2019-05-23T11:09:59.172Z,1692
2019-05-23T11:10:59.138Z,1748
2019-05-23T11:11:59.273Z,1712
2019-05-23T11:12:59.232Z,1748
2019-05-23T11:13:59.470Z,1784
2019-05-23T11:14:59.192Z,1804
2019-05-23T11:15:59.340Z,1776
2019-05-23T11:16:59.203Z,1740
2019-05-23T11:18:01.671Z,1788
2019-05-23T11:18:59.574Z,1820
2019-05-23T11:26:27.513Z,1784
2019-05-23T11:26:38.534Z,1880
2019-05-23T11:27:38.560Z,1860
2019-05-23T11:28:38.631Z,1896
2019-05-23T11:29:38.644Z,1876
2019-05-23T11:30:38.571Z,1856
2019-05-23T11:31:38.851Z,1836
2019-05-23T11:32:38.503Z,1796
2019-05-23T11:33:38.503Z,1780
2019-05-23T11:34:38.490Z,1764
2019-05-23T11:35:38.481Z,1736
2019-05-23T11:36:44.442Z,1716
2019-05-23T11:37:41.654Z,1680
2019-05-23T11:38:38.497Z,1620
2019-05-23T11:39:49.431Z,1648
2019-05-23T11:40:41.544Z,1624
2019-05-23T11:41:38.576Z,1620
2019-05-23T11:42:38.749Z,1592
2019-05-23T11:44:43.323Z,1564
2019-05-23T11:44:54.368Z,1564
2019-05-23T11:45:54.430Z,1588
2019-05-23T11:46:54.420Z,1572
2019-05-23T11:47:54.507Z,1504
2019-05-23T11:48:54.731Z,1596
2019-05-23T11:49:54.717Z,1596
2019-05-23T11:50:54.592Z,1664
2019-05-23T11:51:54.391Z,1656
2019-05-23T11:52:58.517Z,1648
2019-05-23T11:54:15.151Z,1696
2019-05-23T11:54:54.400Z,1676
2019-05-23T11:55:59.396Z,1712
2019-05-23T11:56:54.372Z,1732
2019-05-23T11:57:54.374Z,1764
2019-05-23T11:58:54.539Z,1772
2019-05-23T11:59:54.301Z,1728
2019-05-23T12:00:54.915Z,1696
2019-05-23T12:01:54.386Z,1688
2019-05-23T12:02:54.415Z,1668
2019-05-23T12:03:54.615Z,1652
2019-05-23T12:04:54.440Z,1628
2019-05-23T12:05:54.445Z,1580
2019-05-23T12:07:03.763Z,1580
2019-05-23T12:07:54.362Z,1576
2019-05-23T12:08:54.695Z,1584
2019-05-23T12:09:54.352Z,1572
2019-05-23T12:10:54.485Z,1468
2019-05-23T12:11:54.345Z,916
2019-05-23T12:12:54.409Z,816
2019-05-23T12:13:54.481Z,1120
2019-05-23T12:14:54.907Z,800
2019-05-23T12:15:55.930Z,796
2019-05-23T12:16:54.477Z,980
2019-05-23T12:17:54.409Z,752
2019-05-23T12:18:54.386Z,732
2019-05-23T12:19:54.548Z,1024
2019-05-23T12:20:54.410Z,1148
2019-05-23T12:21:54.409Z,1204
2019-05-23T12:22:55.033Z,1272
2019-05-23T12:23:54.392Z,1408
2019-05-23T12:29:11.372Z,1524
2019-05-23T12:30:22.397Z,1544
2019-05-23T12:31:22.445Z,1524
2019-05-23T12:32:22.414Z,1504
2019-05-23T12:33:22.481Z,1524
2019-05-23T12:34:22.384Z,1552
2019-05-23T12:35:22.402Z,1592
2019-05-23T12:36:22.415Z,1576
2019-05-23T12:37:26.856Z,1588
2019-05-23T12:38:22.438Z,1592
2019-05-23T12:39:22.750Z,1444
2019-05-23T12:40:22.409Z,1616
2019-05-23T12:45:39.925Z,820
2019-05-23T12:46:51.141Z,1476
2019-05-23T12:47:50.958Z,1728
2019-05-23T12:48:50.947Z,1704
2019-05-23T12:49:51.982Z,1696
2019-05-23T12:50:56.272Z,1612
2019-05-23T12:51:51.313Z,1544
2019-05-23T12:52:51.065Z,1548
2019-05-23T12:53:51.040Z,1576
2019-05-23T12:54:50.999Z,680
2019-05-23T12:55:51.004Z,664
2019-05-23T12:56:55.805Z,652
2019-05-23T12:57:51.488Z,752
2019-05-23T12:59:25.838Z,1720
2019-05-23T12:59:50.974Z,1600
2019-05-23T13:00:51.119Z,1724
2019-05-23T13:01:51.212Z,1704
2019-05-23T13:02:51.033Z,1736
2019-05-23T13:03:51.061Z,1716
2019-05-23T13:04:51.218Z,1744
2019-05-23T13:05:51.159Z,1680
2019-05-23T13:06:51.080Z,1776
2019-05-23T13:07:51.121Z,1784
2019-05-23T13:08:51.024Z,1712
2019-05-23T13:09:52.657Z,1648
2019-05-23T13:10:51.088Z,1568
2019-05-23T13:11:51.097Z,1660
2019-05-23T13:12:51.156Z,1680
2019-05-23T13:13:51.105Z,1524
2019-05-23T13:14:54.413Z,1604
2019-05-23T13:15:51.353Z,1564
2019-05-23T13:16:51.585Z,1552
2019-05-23T13:17:51.082Z,1532
2019-05-23T13:18:51.074Z,1564
2019-05-23T13:19:51.097Z,1592
2019-05-23T13:20:51.139Z,1604
2019-05-23T13:21:51.296Z,1408
2019-05-23T13:22:51.148Z,1448
2019-05-23T13:23:51.139Z,1372
2019-05-23T13:25:00.823Z,1420
2019-05-23T13:25:51.236Z,1416
2019-05-23T13:26:51.280Z,1532
2019-05-23T13:27:51.189Z,1588
2019-05-23T13:28:51.053Z,1568
2019-05-23T13:29:51.062Z,1568
2019-05-23T13:30:51.109Z,1548
2019-05-23T13:31:51.038Z,1524
2019-05-23T13:32:51.094Z,1504
2019-05-23T13:33:51.069Z,1496
2019-05-23T13:34:51.141Z,1516
2019-05-23T13:35:51.167Z,1532
2019-05-23T13:36:51.310Z,1540
2019-05-23T13:38:01.518Z,1536
2019-05-23T13:38:51.045Z,1516
2019-05-23T13:39:51.419Z,1516
2019-05-23T13:40:51.162Z,1520
2019-05-23T13:41:51.101Z,1484
2019-05-23T13:42:51.090Z,1496
2019-05-23T13:43:51.307Z,1476
2019-05-23T13:44:51.226Z,1468
2019-05-23T13:45:51.070Z,1456
2019-05-23T13:46:51.165Z,1444
2019-05-23T13:47:51.106Z,1432
2019-05-23T13:48:51.155Z,1416
2019-05-23T13:49:55.066Z,1416
2019-05-23T13:50:51.365Z,1416
2019-05-23T13:51:51.321Z,1428
2019-05-23T13:52:51.068Z,1444
2019-05-23T13:53:51.144Z,1440
2019-05-23T13:54:51.104Z,1416
2019-05-23T13:55:51.129Z,1412
2019-05-23T13:56:55.893Z,1400
2019-05-23T13:57:51.177Z,1392
2019-05-23T13:58:51.187Z,1388
2019-05-23T13:59:51.119Z,1364
2019-05-23T14:00:51.104Z,1356
2019-05-23T14:01:51.270Z,1348
2019-05-23T14:02:51.498Z,1344
2019-05-23T14:03:51.207Z,1360
2019-05-23T14:04:51.277Z,1360
2019-05-23T14:05:51.121Z,1344
2019-05-23T14:06:51.294Z,1312
2019-05-23T14:07:51.209Z,1288
2019-05-23T14:08:51.542Z,1316
2019-05-23T14:09:51.180Z,1288
2019-05-23T14:10:51.127Z,1292
2019-05-23T14:12:19.422Z,1280
2019-05-23T14:12:51.268Z,1296
2019-05-23T14:14:02.698Z,1288
2019-05-23T14:14:51.542Z,1264
2019-05-23T14:15:51.163Z,1272
2019-05-23T14:16:51.187Z,1256
2019-05-23T14:17:51.392Z,880
2019-05-23T14:18:51.204Z,400
2019-05-23T14:19:52.689Z,412
2019-05-23T14:20:51.145Z,376
2019-05-23T14:21:51.187Z,368
2019-05-23T14:22:51.221Z,372
2019-05-23T14:23:51.151Z,392
2019-05-23T14:24:51.266Z,408
2019-05-23T14:25:51.225Z,436
2019-05-23T14:26:51.546Z,512
2019-05-23T14:27:51.407Z,464
2019-05-23T14:28:51.349Z,460
2019-05-23T14:29:51.165Z,480
2019-05-23T14:30:51.132Z,968
2019-05-23T14:31:51.195Z,1172
2019-05-23T14:32:52.555Z,1164
2019-05-23T14:33:51.147Z,1120
2019-05-23T14:34:51.150Z,1112
2019-05-23T14:35:51.182Z,1048
2019-05-23T14:36:51.240Z,1040
2019-05-23T14:37:51.255Z,1044
2019-05-23T14:38:51.098Z,1056
2019-05-23T14:39:51.170Z,1036
2019-05-23T14:40:51.788Z,1000
2019-05-23T14:41:53.518Z,992
2019-05-23T14:42:53.123Z,980
2019-05-23T14:43:51.435Z,964
2019-05-23T14:44:51.256Z,1016
2019-05-23T14:45:51.220Z,996
2019-05-23T14:46:51.231Z,996
2019-05-23T14:47:51.220Z,1012
2019-05-23T14:48:51.188Z,980
2019-05-23T14:50:04.919Z,952
2019-05-23T14:50:51.297Z,964
2019-05-23T14:51:51.258Z,940
2019-05-23T14:52:51.228Z,964
2019-05-23T14:53:51.416Z,1024